sensor_id;sensor_type;location;lat;lon;timestamp;P1;durP1;ratioP1;P2;durP2;ratioP2
63690;SDS011;49837;57.280;27.070;2024-01-25T00:00:53;7.8;;;2.1;;
63690;SDS011;49837;57.280;27.070;2024-01-25T00:01:54;5.4;;;1.8;;
63690;SDS011;49837;57.280;27.070;2024-01-25T00:02:54;3.9;;;1.6;;
63690;SDS011;49837;57.280;27.070;2024-01-25T00:03:54;5.5;;;1.7;;
63690;SDS011;49837;57.280;27.070;2024-01-25T00:04:55;5.2;;;1.9;;
63690;SDS011;49837;57.280;27.070;2024-01-25T00:05:55;5.1;;;2.1;;
63690;SDS011;49837;57.280;27.070;2024-01-25T00:06:55;8.2;;;2.1;;
63690;SDS011;49837;57.280;27.070;2024-01-25T00:07:56;5.5;;;1.9;;
63690;SDS011;49837;57.280;27.070;2024-01-25T00:08:56;4.4;;;1.9;;
63690;SDS011;49837;57.280;27.070;2024-01-25T00:09:57;4.8;;;2.0;;
63690;SDS011;49837;57.280;27.070;2024-01-25T00:10:57;8.2;;;2.1;;
63690;SDS011;49837;57.280;27.070;2024-01-25T00:11:57;4.1;;;2.1;;
63690;SDS011;49837;57.280;27.070;2024-01-25T00:12:58;10.4;;;2.4;;
63690;SDS011;49837;57.280;27.070;2024-01-25T00:13:58;10.7;;;2.0;;
63690;SDS011;49837;57.280;27.070;2024-01-25T00:14:58;10.4;;;2.5;;
63690;SDS011;49837;57.280;27.070;2024-01-25T00:15:59;18.1;;;2.6;;
63690;SDS011;49837;57.280;27.070;2024-01-25T00:16:59;5.2;;;1.9;;
63690;SDS011;49837;57.280;27.070;2024-01-25T00:17:59;9.6;;;2.2;;
63690;SDS011;49837;57.280;27.070;2024-01-25T00:19:00;8.7;;;2.4;;
63690;SDS011;49837;57.280;27.070;2024-01-25T00:20:00;8.4;;;2.0;;
63690;SDS011;49837;57.280;27.070;2024-01-25T00:21:00;16.8;;;2.9;;
63690;SDS011;49837;57.280;27.070;2024-01-25T00:22:01;22.5;;;2.8;;
63690;SDS011;49837;57.280;27.070;2024-01-25T00:23:01;9.8;;;3.0;;
63690;SDS011;49837;57.280;27.070;2024-01-25T00:24:02;15.6;;;2.7;;
63690;SDS011;49837;57.280;27.070;2024-01-25T00:25:02;15.6;;;2.7;;
63690;SDS011;49837;57.280;27.070;2024-01-25T00:26:02;13.4;;;2.5;;
63690;SDS011;49837;57.280;27.070;2024-01-25T00:27:03;11.2;;;3.5;;
63690;SDS011;49837;57.280;27.070;2024-01-25T00:28:03;7.1;;;2.6;;
63690;SDS011;49837;57.280;27.070;2024-01-25T00:29:04;8.6;;;2.6;;
63690;SDS011;49837;57.280;27.070;2024-01-25T00:30:04;6.5;;;2.3;;
63690;SDS011;49837;57.280;27.070;2024-01-25T00:31:04;10.6;;;2.6;;
63690;SDS011;49837;57.280;27.070;2024-01-25T00:32:05;9.9;;;2.8;;
63690;SDS011;49837;57.280;27.070;2024-01-25T00:33:05;14.0;;;2.8;;
63690;SDS011;49837;57.280;27.070;2024-01-25T00:34:05;6.8;;;2.3;;
63690;SDS011;49837;57.280;27.070;2024-01-25T00:35:06;8.7;;;2.4;;
63690;SDS011;49837;57.280;27.070;2024-01-25T00:36:06;9.2;;;2.5;;
63690;SDS011;49837;57.280;27.070;2024-01-25T00:37:06;3.9;;;2.0;;
63690;SDS011;49837;57.280;27.070;2024-01-25T00:38:07;4.4;;;2.0;;
63690;SDS011;49837;57.280;27.070;2024-01-25T00:39:07;3.5;;;2.1;;
63690;SDS011;49837;57.280;27.070;2024-01-25T00:40:08;5.3;;;2.2;;
63690;SDS011;49837;57.280;27.070;2024-01-25T00:41:08;4.8;;;2.1;;
63690;SDS011;49837;57.280;27.070;2024-01-25T00:42:08;7.5;;;2.5;;
63690;SDS011;49837;57.280;27.070;2024-01-25T00:43:10;3.7;;;2.1;;
63690;SDS011;49837;57.280;27.070;2024-01-25T00:44:10;5.6;;;1.9;;
63690;SDS011;49837;57.280;27.070;2024-01-25T00:45:11;17.9;;;3.2;;
63690;SDS011;49837;57.280;27.070;2024-01-25T00:46:11;7.8;;;1.9;;
63690;SDS011;49837;57.280;27.070;2024-01-25T00:47:12;3.6;;;1.9;;
63690;SDS011;49837;57.280;27.070;2024-01-25T00:48:12;7.0;;;1.9;;
63690;SDS011;49837;57.280;27.070;2024-01-25T00:49:12;3.1;;;1.8;;
63690;SDS011;49837;57.280;27.070;2024-01-25T00:50:13;3.3;;;1.9;;
63690;SDS011;49837;57.280;27.070;2024-01-25T00:51:14;3.9;;;2.0;;
63690;SDS011;49837;57.280;27.070;2024-01-25T00:52:13;2.1;;;1.7;;
63690;SDS011;49837;57.280;27.070;2024-01-25T00:53:14;5.6;;;2.0;;
63690;SDS011;49837;57.280;27.070;2024-01-25T00:54:14;4.3;;;1.7;;
63690;SDS011;49837;57.280;27.070;2024-01-25T00:55:15;7.5;;;1.7;;
63690;SDS011;49837;57.280;27.070;2024-01-25T00:56:15;9.2;;;2.1;;
63690;SDS011;49837;57.280;27.070;2024-01-25T00:57:15;2.2;;;1.6;;
63690;SDS011;49837;57.280;27.070;2024-01-25T00:58:15;2.6;;;1.8;;
63690;SDS011;49837;57.280;27.070;2024-01-25T00:59:16;4.2;;;1.9;;
63690;SDS011;49837;57.280;27.070;2024-01-25T01:00:16;4.3;;;1.9;;
63690;SDS011;49837;57.280;27.070;2024-01-25T01:01:17;14.1;;;1.9;;
63690;SDS011;49837;57.280;27.070;2024-01-25T01:02:18;6.0;;;1.8;;
63690;SDS011;49837;57.280;27.070;2024-01-25T01:03:19;6.0;;;1.9;;
63690;SDS011;49837;57.280;27.070;2024-01-25T01:04:20;3.9;;;1.7;;
63690;SDS011;49837;57.280;27.070;2024-01-25T01:05:20;6.7;;;1.8;;
63690;SDS011;49837;57.280;27.070;2024-01-25T01:06:20;3.1;;;2.0;;
63690;SDS011;49837;57.280;27.070;2024-01-25T01:07:21;8.7;;;2.3;;
63690;SDS011;49837;57.280;27.070;2024-01-25T01:08:21;7.5;;;2.0;;
63690;SDS011;49837;57.280;27.070;2024-01-25T01:09:21;16.5;;;3.0;;
63690;SDS011;49837;57.280;27.070;2024-01-25T01:10:22;12.0;;;2.5;;
63690;SDS011;49837;57.280;27.070;2024-01-25T01:11:22;11.3;;;2.6;;
63690;SDS011;49837;57.280;27.070;2024-01-25T01:12:22;7.1;;;2.2;;
63690;SDS011;49837;57.280;27.070;2024-01-25T01:13:23;24.7;;;3.1;;
63690;SDS011;49837;57.280;27.070;2024-01-25T01:14:23;8.5;;;2.7;;
63690;SDS011;49837;57.280;27.070;2024-01-25T01:15:24;11.3;;;2.3;;
63690;SDS011;49837;57.280;27.070;2024-01-25T01:16:24;16.6;;;2.8;;
63690;SDS011;49837;57.280;27.070;2024-01-25T01:17:24;17.2;;;3.1;;
63690;SDS011;49837;57.280;27.070;2024-01-25T01:18:25;21.9;;;3.2;;
63690;SDS011;49837;57.280;27.070;2024-01-25T01:19:25;30.4;;;3.5;;
63690;SDS011;49837;57.280;27.070;2024-01-25T01:20:25;21.4;;;3.1;;
63690;SDS011;49837;57.280;27.070;2024-01-25T01:21:26;20.6;;;2.8;;
63690;SDS011;49837;57.280;27.070;2024-01-25T01:22:26;25.4;;;3.7;;
63690;SDS011;49837;57.280;27.070;2024-01-25T01:23:26;20.6;;;3.3;;
63690;SDS011;49837;57.280;27.070;2024-01-25T01:24:27;36.8;;;4.1;;
63690;SDS011;49837;57.280;27.070;2024-01-25T01:25:27;41.1;;;4.5;;
63690;SDS011;49837;57.280;27.070;2024-01-25T01:26:28;56.6;;;5.9;;
63690;SDS011;49837;57.280;27.070;2024-01-25T01:27:28;84.9;;;8.0;;
63690;SDS011;49837;57.280;27.070;2024-01-25T01:28:28;29.0;;;5.2;;
63690;SDS011;49837;57.280;27.070;2024-01-25T01:29:29;28.3;;;4.4;;
63690;SDS011;49837;57.280;27.070;2024-01-25T01:30:29;43.1;;;5.3;;
63690;SDS011;49837;57.280;27.070;2024-01-25T01:31:29;196.2;;;14.6;;
63690;SDS011;49837;57.280;27.070;2024-01-25T01:32:30;99.2;;;7.3;;
63690;SDS011;49837;57.280;27.070;2024-01-25T01:33:30;56.2;;;5.2;;
63690;SDS011;49837;57.280;27.070;2024-01-25T01:34:31;36.2;;;4.3;;
63690;SDS011;49837;57.280;27.070;2024-01-25T01:35:31;34.0;;;4.1;;
63690;SDS011;49837;57.280;27.070;2024-01-25T01:36:31;51.3;;;5.0;;
63690;SDS011;49837;57.280;27.070;2024-01-25T01:37:32;42.6;;;4.9;;
63690;SDS011;49837;57.280;27.070;2024-01-25T01:38:32;24.3;;;4.0;;
63690;SDS011;49837;57.280;27.070;2024-01-25T01:39:32;63.4;;;5.4;;
63690;SDS011;49837;57.280;27.070;2024-01-25T01:40:33;85.0;;;18.5;;
63690;SDS011;49837;57.280;27.070;2024-01-25T01:41:33;521.4;;;235.4;;
63690;SDS011;49837;57.280;27.070;2024-01-25T01:42:33;467.8;;;170.0;;
63690;SDS011;49837;57.280;27.070;2024-01-25T01:43:34;230.5;;;97.3;;
63690;SDS011;49837;57.280;27.070;2024-01-25T01:44:34;192.3;;;43.0;;
63690;SDS011;49837;57.280;27.070;2024-01-25T01:45:34;143.7;;;42.3;;
63690;SDS011;49837;57.280;27.070;2024-01-25T01:46:35;114.3;;;18.8;;
63690;SDS011;49837;57.280;27.070;2024-01-25T01:47:35;52.0;;;13.3;;
63690;SDS011;49837;57.280;27.070;2024-01-25T01:48:35;45.4;;;8.5;;
63690;SDS011;49837;57.280;27.070;2024-01-25T01:49:36;65.4;;;8.5;;
63690;SDS011;49837;57.280;27.070;2024-01-25T01:50:36;61.1;;;6.4;;
63690;SDS011;49837;57.280;27.070;2024-01-25T01:51:37;98.0;;;7.7;;
63690;SDS011;49837;57.280;27.070;2024-01-25T01:52:37;74.6;;;6.0;;
63690;SDS011;49837;57.280;27.070;2024-01-25T01:53:37;46.6;;;4.9;;
63690;SDS011;49837;57.280;27.070;2024-01-25T01:54:38;24.0;;;3.4;;
63690;SDS011;49837;57.280;27.070;2024-01-25T01:55:38;27.9;;;3.5;;
63690;SDS011;49837;57.280;27.070;2024-01-25T01:56:38;56.7;;;5.0;;
63690;SDS011;49837;57.280;27.070;2024-01-25T01:57:39;37.4;;;4.4;;
63690;SDS011;49837;57.280;27.070;2024-01-25T01:58:39;38.3;;;4.5;;
63690;SDS011;49837;57.280;27.070;2024-01-25T01:59:39;65.4;;;6.0;;
63690;SDS011;49837;57.280;27.070;2024-01-25T02:00:40;41.2;;;4.4;;
63690;SDS011;49837;57.280;27.070;2024-01-25T02:01:40;36.5;;;3.7;;
63690;SDS011;49837;57.280;27.070;2024-01-25T02:02:40;34.1;;;5.0;;
63690;SDS011;49837;57.280;27.070;2024-01-25T02:03:41;30.0;;;3.7;;
63690;SDS011;49837;57.280;27.070;2024-01-25T02:04:42;106.9;;;8.2;;
63690;SDS011;49837;57.280;27.070;2024-01-25T02:05:42;33.4;;;3.8;;
63690;SDS011;49837;57.280;27.070;2024-01-25T02:06:42;36.9;;;4.9;;
63690;SDS011;49837;57.280;27.070;2024-01-25T02:07:42;23.6;;;3.9;;
63690;SDS011;49837;57.280;27.070;2024-01-25T02:08:43;42.1;;;4.9;;
63690;SDS011;49837;57.280;27.070;2024-01-25T02:09:43;58.1;;;4.5;;
63690;SDS011;49837;57.280;27.070;2024-01-25T02:10:43;78.7;;;7.0;;
63690;SDS011;49837;57.280;27.070;2024-01-25T02:11:44;42.0;;;4.3;;
63690;SDS011;49837;57.280;27.070;2024-01-25T02:12:44;82.9;;;6.9;;
63690;SDS011;49837;57.280;27.070;2024-01-25T02:13:44;85.4;;;6.8;;
63690;SDS011;49837;57.280;27.070;2024-01-25T02:14:45;117.1;;;10.6;;
63690;SDS011;49837;57.280;27.070;2024-01-25T02:15:45;76.6;;;6.7;;
63690;SDS011;49837;57.280;27.070;2024-01-25T02:16:46;22.7;;;3.6;;
63690;SDS011;49837;57.280;27.070;2024-01-25T02:17:46;36.5;;;4.6;;
63690;SDS011;49837;57.280;27.070;2024-01-25T02:18:46;60.1;;;5.4;;
63690;SDS011;49837;57.280;27.070;2024-01-25T02:19:47;28.2;;;3.3;;
63690;SDS011;49837;57.280;27.070;2024-01-25T02:20:47;88.8;;;7.5;;
63690;SDS011;49837;57.280;27.070;2024-01-25T02:21:47;36.1;;;4.0;;
63690;SDS011;49837;57.280;27.070;2024-01-25T02:22:48;40.3;;;4.2;;
63690;SDS011;49837;57.280;27.070;2024-01-25T02:23:49;53.2;;;5.3;;
63690;SDS011;49837;57.280;27.070;2024-01-25T02:24:49;42.3;;;4.3;;
63690;SDS011;49837;57.280;27.070;2024-01-25T02:25:49;34.7;;;4.4;;
63690;SDS011;49837;57.280;27.070;2024-01-25T02:26:49;27.2;;;3.7;;
63690;SDS011;49837;57.280;27.070;2024-01-25T02:27:50;28.1;;;3.8;;
63690;SDS011;49837;57.280;27.070;2024-01-25T02:28:50;47.4;;;5.3;;
63690;SDS011;49837;57.280;27.070;2024-01-25T02:29:51;41.4;;;3.9;;
63690;SDS011;49837;57.280;27.070;2024-01-25T02:30:51;42.5;;;4.7;;
63690;SDS011;49837;57.280;27.070;2024-01-25T02:31:52;88.1;;;6.1;;
63690;SDS011;49837;57.280;27.070;2024-01-25T02:32:52;37.8;;;4.5;;
63690;SDS011;49837;57.280;27.070;2024-01-25T02:33:52;17.5;;;3.0;;
63690;SDS011;49837;57.280;27.070;2024-01-25T02:34:53;27.6;;;4.2;;
63690;SDS011;49837;57.280;27.070;2024-01-25T02:35:53;63.4;;;5.5;;
63690;SDS011;49837;57.280;27.070;2024-01-25T02:36:53;45.7;;;4.8;;
63690;SDS011;49837;57.280;27.070;2024-01-25T02:37:54;34.0;;;4.7;;
63690;SDS011;49837;57.280;27.070;2024-01-25T02:38:54;39.3;;;6.5;;
63690;SDS011;49837;57.280;27.070;2024-01-25T02:39:54;77.9;;;6.1;;
63690;SDS011;49837;57.280;27.070;2024-01-25T02:40:55;46.9;;;7.0;;
63690;SDS011;49837;57.280;27.070;2024-01-25T02:41:55;33.9;;;6.2;;
63690;SDS011;49837;57.280;27.070;2024-01-25T02:42:56;16.9;;;5.1;;
63690;SDS011;49837;57.280;27.070;2024-01-25T02:43:56;36.7;;;4.7;;
63690;SDS011;49837;57.280;27.070;2024-01-25T02:44:56;46.3;;;4.1;;
63690;SDS011;49837;57.280;27.070;2024-01-25T02:45:57;45.1;;;4.9;;
63690;SDS011;49837;57.280;27.070;2024-01-25T02:46:57;52.7;;;5.1;;
63690;SDS011;49837;57.280;27.070;2024-01-25T02:47:57;39.3;;;4.1;;
63690;SDS011;49837;57.280;27.070;2024-01-25T02:48:58;56.4;;;5.5;;
63690;SDS011;49837;57.280;27.070;2024-01-25T02:49:58;44.4;;;4.5;;
63690;SDS011;49837;57.280;27.070;2024-01-25T02:50:59;41.3;;;4.7;;
63690;SDS011;49837;57.280;27.070;2024-01-25T02:51:59;48.6;;;3.8;;
63690;SDS011;49837;57.280;27.070;2024-01-25T02:52:59;31.7;;;4.0;;
63690;SDS011;49837;57.280;27.070;2024-01-25T02:54:00;26.8;;;3.7;;
63690;SDS011;49837;57.280;27.070;2024-01-25T02:55:01;34.1;;;4.0;;
63690;SDS011;49837;57.280;27.070;2024-01-25T02:56:01;65.6;;;5.8;;
63690;SDS011;49837;57.280;27.070;2024-01-25T02:57:01;45.8;;;5.1;;
63690;SDS011;49837;57.280;27.070;2024-01-25T02:58:02;24.7;;;4.2;;
63690;SDS011;49837;57.280;27.070;2024-01-25T02:59:02;27.1;;;4.1;;
63690;SDS011;49837;57.280;27.070;2024-01-25T03:00:02;24.4;;;4.2;;
63690;SDS011;49837;57.280;27.070;2024-01-25T03:01:03;33.1;;;4.5;;
63690;SDS011;49837;57.280;27.070;2024-01-25T03:02:03;23.6;;;3.4;;
63690;SDS011;49837;57.280;27.070;2024-01-25T03:03:04;47.8;;;4.9;;
63690;SDS011;49837;57.280;27.070;2024-01-25T03:04:04;28.6;;;3.9;;
63690;SDS011;49837;57.280;27.070;2024-01-25T03:05:04;40.1;;;4.8;;
63690;SDS011;49837;57.280;27.070;2024-01-25T03:06:05;33.9;;;4.0;;
63690;SDS011;49837;57.280;27.070;2024-01-25T03:07:05;28.4;;;3.6;;
63690;SDS011;49837;57.280;27.070;2024-01-25T03:08:05;26.1;;;3.9;;
63690;SDS011;49837;57.280;27.070;2024-01-25T03:09:05;29.0;;;3.5;;
63690;SDS011;49837;57.280;27.070;2024-01-25T03:10:06;33.5;;;4.8;;
63690;SDS011;49837;57.280;27.070;2024-01-25T03:11:06;52.6;;;5.4;;
63690;SDS011;49837;57.280;27.070;2024-01-25T03:12:07;32.2;;;3.5;;
63690;SDS011;49837;57.280;27.070;2024-01-25T03:13:07;31.6;;;3.4;;
63690;SDS011;49837;57.280;27.070;2024-01-25T03:14:07;23.4;;;2.9;;
63690;SDS011;49837;57.280;27.070;2024-01-25T03:15:08;48.8;;;4.7;;
63690;SDS011;49837;57.280;27.070;2024-01-25T03:16:08;13.8;;;2.9;;
63690;SDS011;49837;57.280;27.070;2024-01-25T03:17:09;14.9;;;3.8;;
63690;SDS011;49837;57.280;27.070;2024-01-25T03:18:09;17.5;;;3.9;;
63690;SDS011;49837;57.280;27.070;2024-01-25T03:19:10;21.5;;;3.6;;
63690;SDS011;49837;57.280;27.070;2024-01-25T03:20:10;23.8;;;4.8;;
63690;SDS011;49837;57.280;27.070;2024-01-25T03:21:10;35.5;;;5.6;;
63690;SDS011;49837;57.280;27.070;2024-01-25T03:22:10;35.5;;;4.6;;
63690;SDS011;49837;57.280;27.070;2024-01-25T03:23:11;38.9;;;4.5;;
63690;SDS011;49837;57.280;27.070;2024-01-25T03:24:11;57.5;;;4.5;;
63690;SDS011;49837;57.280;27.070;2024-01-25T03:25:12;25.2;;;3.5;;
63690;SDS011;49837;57.280;27.070;2024-01-25T03:26:12;26.9;;;3.0;;
63690;SDS011;49837;57.280;27.070;2024-01-25T03:27:12;27.9;;;3.2;;
63690;SDS011;49837;57.280;27.070;2024-01-25T03:28:12;19.8;;;3.0;;
63690;SDS011;49837;57.280;27.070;2024-01-25T03:29:13;23.7;;;3.2;;
63690;SDS011;49837;57.280;27.070;2024-01-25T03:30:13;31.8;;;3.4;;
63690;SDS011;49837;57.280;27.070;2024-01-25T03:31:13;21.7;;;3.3;;
63690;SDS011;49837;57.280;27.070;2024-01-25T03:32:14;34.9;;;3.9;;
63690;SDS011;49837;57.280;27.070;2024-01-25T03:33:14;19.0;;;3.1;;
63690;SDS011;49837;57.280;27.070;2024-01-25T03:34:15;32.0;;;3.5;;
63690;SDS011;49837;57.280;27.070;2024-01-25T03:35:15;18.1;;;3.4;;
63690;SDS011;49837;57.280;27.070;2024-01-25T03:36:15;17.2;;;3.4;;
63690;SDS011;49837;57.280;27.070;2024-01-25T03:37:16;17.0;;;3.1;;
63690;SDS011;49837;57.280;27.070;2024-01-25T03:38:16;32.2;;;3.7;;
63690;SDS011;49837;57.280;27.070;2024-01-25T03:39:16;17.8;;;2.5;;
63690;SDS011;49837;57.280;27.070;2024-01-25T03:40:17;37.2;;;4.1;;
63690;SDS011;49837;57.280;27.070;2024-01-25T03:41:17;22.1;;;3.0;;
63690;SDS011;49837;57.280;27.070;2024-01-25T03:42:17;18.4;;;2.9;;
63690;SDS011;49837;57.280;27.070;2024-01-25T03:43:18;13.8;;;3.0;;
63690;SDS011;49837;57.280;27.070;2024-01-25T03:44:20;20.0;;;3.2;;
63690;SDS011;49837;57.280;27.070;2024-01-25T03:45:21;23.0;;;2.9;;
63690;SDS011;49837;57.280;27.070;2024-01-25T03:46:21;33.3;;;3.9;;
63690;SDS011;49837;57.280;27.070;2024-01-25T03:47:22;27.8;;;3.8;;
63690;SDS011;49837;57.280;27.070;2024-01-25T03:48:22;46.7;;;4.2;;
63690;SDS011;49837;57.280;27.070;2024-01-25T03:49:22;37.1;;;4.5;;
63690;SDS011;49837;57.280;27.070;2024-01-25T03:50:23;48.4;;;5.1;;
63690;SDS011;49837;57.280;27.070;2024-01-25T03:51:23;99.9;;;7.3;;
63690;SDS011;49837;57.280;27.070;2024-01-25T03:52:23;33.0;;;4.0;;
63690;SDS011;49837;57.280;27.070;2024-01-25T03:53:24;39.2;;;4.0;;
63690;SDS011;49837;57.280;27.070;2024-01-25T03:54:24;32.6;;;3.8;;
63690;SDS011;49837;57.280;27.070;2024-01-25T03:55:24;26.2;;;4.4;;
63690;SDS011;49837;57.280;27.070;2024-01-25T03:56:25;64.4;;;5.2;;
63690;SDS011;49837;57.280;27.070;2024-01-25T03:57:25;28.5;;;3.8;;
63690;SDS011;49837;57.280;27.070;2024-01-25T03:58:25;19.8;;;3.3;;
63690;SDS011;49837;57.280;27.070;2024-01-25T03:59:26;28.8;;;3.9;;
63690;SDS011;49837;57.280;27.070;2024-01-25T04:00:26;50.1;;;4.9;;
63690;SDS011;49837;57.280;27.070;2024-01-25T04:01:27;23.7;;;3.1;;
63690;SDS011;49837;57.280;27.070;2024-01-25T04:02:28;51.3;;;4.5;;
63690;SDS011;49837;57.280;27.070;2024-01-25T04:03:28;38.1;;;3.5;;
63690;SDS011;49837;57.280;27.070;2024-01-25T04:04:29;20.4;;;3.0;;
63690;SDS011;49837;57.280;27.070;2024-01-25T04:05:29;65.1;;;5.2;;
63690;SDS011;49837;57.280;27.070;2024-01-25T04:06:29;54.8;;;4.6;;
63690;SDS011;49837;57.280;27.070;2024-01-25T04:07:30;26.6;;;3.5;;
63690;SDS011;49837;57.280;27.070;2024-01-25T04:08:30;23.2;;;3.0;;
63690;SDS011;49837;57.280;27.070;2024-01-25T04:09:30;39.0;;;3.7;;
63690;SDS011;49837;57.280;27.070;2024-01-25T04:10:31;23.5;;;3.4;;
63690;SDS011;49837;57.280;27.070;2024-01-25T04:11:31;24.2;;;2.3;;
63690;SDS011;49837;57.280;27.070;2024-01-25T04:12:32;31.0;;;2.8;;
63690;SDS011;49837;57.280;27.070;2024-01-25T04:13:32;9.2;;;2.4;;
63690;SDS011;49837;57.280;27.070;2024-01-25T04:14:32;15.3;;;2.3;;
63690;SDS011;49837;57.280;27.070;2024-01-25T04:15:33;10.6;;;2.5;;
63690;SDS011;49837;57.280;27.070;2024-01-25T04:16:33;23.9;;;2.4;;
63690;SDS011;49837;57.280;27.070;2024-01-25T04:17:33;8.4;;;1.9;;
63690;SDS011;49837;57.280;27.070;2024-01-25T04:18:34;6.2;;;1.8;;
63690;SDS011;49837;57.280;27.070;2024-01-25T04:19:35;9.8;;;2.2;;
63690;SDS011;49837;57.280;27.070;2024-01-25T04:20:34;3.4;;;1.8;;
63690;SDS011;49837;57.280;27.070;2024-01-25T04:21:36;5.2;;;2.0;;
63690;SDS011;49837;57.280;27.070;2024-01-25T04:22:35;5.0;;;1.9;;
63690;SDS011;49837;57.280;27.070;2024-01-25T04:23:36;2.1;;;1.6;;
63690;SDS011;49837;57.280;27.070;2024-01-25T04:24:36;13.6;;;2.4;;
63690;SDS011;49837;57.280;27.070;2024-01-25T04:25:37;7.6;;;2.0;;
63690;SDS011;49837;57.280;27.070;2024-01-25T04:26:37;10.1;;;2.2;;
63690;SDS011;49837;57.280;27.070;2024-01-25T04:27:37;5.7;;;1.8;;
63690;SDS011;49837;57.280;27.070;2024-01-25T04:28:37;19.5;;;2.3;;
63690;SDS011;49837;57.280;27.070;2024-01-25T04:29:40;3.3;;;1.4;;
63690;SDS011;49837;57.280;27.070;2024-01-25T04:30:38;5.8;;;2.2;;
63690;SDS011;49837;57.280;27.070;2024-01-25T04:31:45;9.4;;;3.4;;
63690;SDS011;49837;57.280;27.070;2024-01-25T04:32:43;7.8;;;2.7;;
63690;SDS011;49837;57.280;27.070;2024-01-25T04:33:43;5.0;;;1.8;;
63690;SDS011;49837;57.280;27.070;2024-01-25T04:34:45;8.4;;;2.3;;
63690;SDS011;49837;57.280;27.070;2024-01-25T04:35:45;10.7;;;2.0;;
63690;SDS011;49837;57.280;27.070;2024-01-25T04:36:45;12.5;;;3.4;;
63690;SDS011;49837;57.280;27.070;2024-01-25T04:37:46;3.9;;;2.4;;
63690;SDS011;49837;57.280;27.070;2024-01-25T04:38:46;25.9;;;2.7;;
63690;SDS011;49837;57.280;27.070;2024-01-25T04:39:46;9.9;;;2.6;;
63690;SDS011;49837;57.280;27.070;2024-01-25T04:40:47;14.5;;;3.5;;
63690;SDS011;49837;57.280;27.070;2024-01-25T04:41:47;7.2;;;2.8;;
63690;SDS011;49837;57.280;27.070;2024-01-25T04:42:47;5.5;;;2.2;;
63690;SDS011;49837;57.280;27.070;2024-01-25T04:43:48;9.6;;;1.9;;
63690;SDS011;49837;57.280;27.070;2024-01-25T04:44:48;8.1;;;1.4;;
63690;SDS011;49837;57.280;27.070;2024-01-25T04:45:49;3.1;;;1.5;;
63690;SDS011;49837;57.280;27.070;2024-01-25T04:46:49;22.7;;;2.6;;
63690;SDS011;49837;57.280;27.070;2024-01-25T04:47:49;8.5;;;1.9;;
63690;SDS011;49837;57.280;27.070;2024-01-25T04:48:50;6.5;;;1.4;;
63690;SDS011;49837;57.280;27.070;2024-01-25T04:49:50;12.5;;;2.1;;
63690;SDS011;49837;57.280;27.070;2024-01-25T04:50:50;22.2;;;2.4;;
63690;SDS011;49837;57.280;27.070;2024-01-25T04:51:51;50.0;;;3.6;;
63690;SDS011;49837;57.280;27.070;2024-01-25T04:52:51;14.1;;;1.7;;
63690;SDS011;49837;57.280;27.070;2024-01-25T04:53:51;2.8;;;1.1;;
63690;SDS011;49837;57.280;27.070;2024-01-25T04:54:52;13.8;;;1.6;;
63690;SDS011;49837;57.280;27.070;2024-01-25T04:55:54;16.0;;;1.8;;
63690;SDS011;49837;57.280;27.070;2024-01-25T04:56:53;6.1;;;1.4;;
63690;SDS011;49837;57.280;27.070;2024-01-25T04:57:53;4.5;;;1.6;;
63690;SDS011;49837;57.280;27.070;2024-01-25T04:58:53;1.8;;;1.1;;
63690;SDS011;49837;57.280;27.070;2024-01-25T04:59:54;1.9;;;1.1;;
63690;SDS011;49837;57.280;27.070;2024-01-25T05:00:54;1.9;;;1.1;;
63690;SDS011;49837;57.280;27.070;2024-01-25T05:01:54;2.8;;;1.0;;
63690;SDS011;49837;57.280;27.070;2024-01-25T05:02:55;3.0;;;1.3;;
63690;SDS011;49837;57.280;27.070;2024-01-25T05:03:55;3.2;;;1.0;;
63690;SDS011;49837;57.280;27.070;2024-01-25T05:04:55;0.9;;;0.9;;
63690;SDS011;49837;57.280;27.070;2024-01-25T05:05:56;1.3;;;0.7;;
63690;SDS011;49837;57.280;27.070;2024-01-25T05:06:56;1.7;;;1.3;;
63690;SDS011;49837;57.280;27.070;2024-01-25T05:07:56;2.2;;;1.1;;
63690;SDS011;49837;57.280;27.070;2024-01-25T05:08:57;1.3;;;1.1;;
63690;SDS011;49837;57.280;27.070;2024-01-25T05:09:57;1.2;;;0.9;;
63690;SDS011;49837;57.280;27.070;2024-01-25T05:10:58;1.1;;;0.9;;
63690;SDS011;49837;57.280;27.070;2024-01-25T05:11:58;1.4;;;1.0;;
63690;SDS011;49837;57.280;27.070;2024-01-25T05:12:58;1.2;;;1.0;;
63690;SDS011;49837;57.280;27.070;2024-01-25T05:13:59;1.6;;;1.1;;
63690;SDS011;49837;57.280;27.070;2024-01-25T05:14:59;1.0;;;0.9;;
63690;SDS011;49837;57.280;27.070;2024-01-25T05:15:59;2.1;;;1.0;;
63690;SDS011;49837;57.280;27.070;2024-01-25T05:17:00;1.1;;;1.0;;
63690;SDS011;49837;57.280;27.070;2024-01-25T05:18:01;0.8;;;0.8;;
63690;SDS011;49837;57.280;27.070;2024-01-25T05:19:01;1.1;;;0.9;;
63690;SDS011;49837;57.280;27.070;2024-01-25T05:20:01;1.3;;;0.9;;
63690;SDS011;49837;57.280;27.070;2024-01-25T05:21:01;2.6;;;1.0;;
63690;SDS011;49837;57.280;27.070;2024-01-25T05:22:02;0.8;;;0.8;;
63690;SDS011;49837;57.280;27.070;2024-01-25T05:23:02;1.0;;;1.0;;
63690;SDS011;49837;57.280;27.070;2024-01-25T05:24:02;0.9;;;0.9;;
63690;SDS011;49837;57.280;27.070;2024-01-25T05:25:03;1.4;;;0.8;;
63690;SDS011;49837;57.280;27.070;2024-01-25T05:26:03;0.8;;;0.8;;
63690;SDS011;49837;57.280;27.070;2024-01-25T05:27:03;0.7;;;0.7;;
63690;SDS011;49837;57.280;27.070;2024-01-25T05:28:04;1.9;;;0.9;;
63690;SDS011;49837;57.280;27.070;2024-01-25T05:29:04;3.7;;;0.9;;
63690;SDS011;49837;57.280;27.070;2024-01-25T05:30:06;1.1;;;0.8;;
63690;SDS011;49837;57.280;27.070;2024-01-25T05:31:05;2.9;;;1.0;;
63690;SDS011;49837;57.280;27.070;2024-01-25T05:32:05;3.0;;;0.9;;
63690;SDS011;49837;57.280;27.070;2024-01-25T05:33:06;4.3;;;1.0;;
63690;SDS011;49837;57.280;27.070;2024-01-25T05:34:06;0.9;;;0.9;;
63690;SDS011;49837;57.280;27.070;2024-01-25T05:35:07;2.1;;;0.7;;
63690;SDS011;49837;57.280;27.070;2024-01-25T05:36:07;0.8;;;0.8;;
63690;SDS011;49837;57.280;27.070;2024-01-25T05:37:07;3.1;;;1.1;;
63690;SDS011;49837;57.280;27.070;2024-01-25T05:38:07;1.3;;;0.8;;
63690;SDS011;49837;57.280;27.070;2024-01-25T05:39:08;1.1;;;1.0;;
63690;SDS011;49837;57.280;27.070;2024-01-25T05:40:08;2.6;;;1.0;;
63690;SDS011;49837;57.280;27.070;2024-01-25T05:41:08;1.0;;;0.9;;
63690;SDS011;49837;57.280;27.070;2024-01-25T05:42:09;1.8;;;0.9;;
63690;SDS011;49837;57.280;27.070;2024-01-25T05:43:09;0.9;;;0.9;;
63690;SDS011;49837;57.280;27.070;2024-01-25T05:44:09;0.8;;;0.8;;
63690;SDS011;49837;57.280;27.070;2024-01-25T05:45:10;1.8;;;1.5;;
63690;SDS011;49837;57.280;27.070;2024-01-25T05:46:10;2.9;;;2.6;;
63690;SDS011;49837;57.280;27.070;2024-01-25T05:47:11;7.7;;;5.3;;
63690;SDS011;49837;57.280;27.070;2024-01-25T05:48:11;10.9;;;9.6;;
63690;SDS011;49837;57.280;27.070;2024-01-25T05:49:11;5.6;;;4.6;;
63690;SDS011;49837;57.280;27.070;2024-01-25T05:50:12;4.0;;;3.1;;
63690;SDS011;49837;57.280;27.070;2024-01-25T05:51:12;4.0;;;2.6;;
63690;SDS011;49837;57.280;27.070;2024-01-25T05:52:13;5.2;;;2.1;;
63690;SDS011;49837;57.280;27.070;2024-01-25T05:53:13;9.2;;;2.5;;
63690;SDS011;49837;57.280;27.070;2024-01-25T05:54:13;9.4;;;2.0;;
63690;SDS011;49837;57.280;27.070;2024-01-25T05:55:13;12.9;;;2.8;;
63690;SDS011;49837;57.280;27.070;2024-01-25T05:56:14;23.8;;;3.5;;
63690;SDS011;49837;57.280;27.070;2024-01-25T05:57:14;4.0;;;1.3;;
63690;SDS011;49837;57.280;27.070;2024-01-25T05:58:15;1.5;;;1.4;;
63690;SDS011;49837;57.280;27.070;2024-01-25T05:59:15;1.5;;;1.4;;
63690;SDS011;49837;57.280;27.070;2024-01-25T06:00:16;2.8;;;2.1;;
63690;SDS011;49837;57.280;27.070;2024-01-25T06:01:17;4.7;;;2.0;;
63690;SDS011;49837;57.280;27.070;2024-01-25T06:02:17;3.2;;;1.8;;
63690;SDS011;49837;57.280;27.070;2024-01-25T06:03:18;5.0;;;2.0;;
63690;SDS011;49837;57.280;27.070;2024-01-25T06:04:18;3.3;;;2.0;;
63690;SDS011;49837;57.280;27.070;2024-01-25T06:05:18;4.6;;;2.6;;
63690;SDS011;49837;57.280;27.070;2024-01-25T06:06:19;3.0;;;1.8;;